Terminal Aerodrome Forecast
Issued by NWS

Home | Current Version | Previous Version | Text Only | Print | Product List | Glossary On
Versions: 1 2 3 4 5 6 7 8 9 10 11 12 13 14 15 16 17 18 19
000
FTUS43 KLSX 270802 AAA
TAFCPS
TAF AMD
KCPS 270802Z 2708/2806 VRB03KT P6SM VCTS SCT040CB SCT100
      TEMPO 2708/2710 BKN020CB
     FM271000 VRB03KT 6SM BR SCT250
      TEMPO 2710/2713 3SM BR
     FM271800 VRB04KT P6SM SCT050
     FM280200 VRB03KT P6SM SCT250=

USA.gov is the U.S. government's official web portal to all federal, state and local government web resources and services.